Time;durP1;ratioP1;P1;durP2;ratioP2;P2;SDS_P1;SDS_P2;PMS_P1;PMS_P2;Temp;Humidity;BMP_temperature;BMP_pressure;BME280_temperature;BME280_humidity;BME280_pressure;Samples;Min_cycle;Max_cycle;Signal;HPM_P1;HPM_P2
2022/03/25 00:01:04;;;;;;;87.47;40.12;;;;;;;-0.89;75.20;99110.03;1743428;82;20997;-56
2022/03/25 00:03:32;;;;;;;90.62;38.45;;;;;;;-0.88;72.35;99114.34;1743112;81;21080;-57
2022/03/25 00:05:58;;;;;;;85.97;40.38;;;;;;;-0.90;73.19;99116.37;1743442;82;21343;-57
2022/03/25 00:08:26;;;;;;;83.10;37.78;;;;;;;-0.92;74.79;99115.22;1748535;80;20986;-57
2022/03/25 00:10:53;;;;;;;90.75;41.65;;;;;;;-0.93;71.99;99114.08;1743012;81;21406;-57
2022/03/25 00:13:20;;;;;;;83.67;39.53;;;;;;;-0.96;73.72;99105.92;1742957;82;21068;-57
2022/03/25 00:15:46;;;;;;;87.27;41.02;;;;;;;-0.95;72.75;99106.25;1743437;82;21022;-57
2022/03/25 00:18:14;;;;;;;84.70;38.83;;;;;;;-0.93;76.78;99108.75;1742950;81;21334;-57
2022/03/25 00:20:41;;;;;;;89.00;40.90;;;;;;;-0.91;76.45;99107.56;1743301;82;20946;-57
2022/03/25 00:23:08;;;;;;;91.60;40.48;;;;;;;-0.89;77.03;99099.39;1743130;81;20990;-56
2022/03/25 00:25:35;;;;;;;73.25;34.55;;;;;;;-0.85;75.57;99103.36;1743423;82;21507;-57
2022/03/25 00:28:02;;;;;;;82.90;37.78;;;;;;;-0.82;73.34;99097.66;1754137;79;21525;-57
2022/03/25 00:30:29;;;;;;;71.95;35.30;;;;;;;-0.86;74.11;99101.68;1744538;80;21783;-57
2022/03/25 00:32:56;;;;;;;72.20;35.55;;;;;;;-0.86;75.12;99095.02;1748481;80;20989;-57
2022/03/25 00:35:23;;;;;;;68.40;33.13;;;;;;;-0.88;77.39;99093.87;1743469;82;20982;-57
2022/03/25 00:37:50;;;;;;;74.50;32.42;;;;;;;-0.88;77.80;99086.41;1745265;80;21040;-57
2022/03/25 00:40:17;;;;;;;59.08;29.25;;;;;;;-0.91;73.26;99083.61;1743137;82;21427;-57
2022/03/25 00:42:44;;;;;;;58.90;29.42;;;;;;;-0.98;78.75;99085.84;1743033;82;21440;-57
2022/03/25 00:45:12;;;;;;;68.07;30.90;;;;;;;-0.95;75.22;99086.29;1743271;82;21002;-57
2022/03/25 00:47:39;;;;;;;75.52;32.48;;;;;;;-0.91;75.05;99088.11;1743174;81;20972;-57
2022/03/25 00:50:07;;;;;;;61.60;28.95;;;;;;;-0.87;75.79;99077.41;1743078;82;21049;-57
2022/03/25 00:52:34;;;;;;;57.98;27.15;;;;;;;-0.89;74.27;99080.77;1746948;80;21614;-57
2022/03/25 00:55:01;;;;;;;61.70;24.80;;;;;;;-0.88;75.80;99078.42;1773583;80;21582;-57
2022/03/25 00:57:28;;;;;;;58.70;26.57;;;;;;;-0.85;74.58;99082.07;1769997;80;20990;-57
2022/03/25 00:59:54;;;;;;;61.15;28.65;;;;;;;-0.85;76.87;99074.09;1746022;80;20994;-57
2022/03/25 01:02:22;;;;;;;62.60;29.77;;;;;;;-0.83;80.29;99077.39;1743989;80;21525;-57
2022/03/25 01:04:49;;;;;;;59.30;28.55;;;;;;;-0.81;76.81;99075.88;1769933;80;21037;-57
2022/03/25 01:07:17;;;;;;;70.55;33.78;;;;;;;-0.92;76.30;99073.15;1773897;80;21414;-57
2022/03/25 01:09:44;;;;;;;64.50;31.20;;;;;;;-1.04;78.93;99079.89;1773892;80;21001;-57
2022/03/25 01:12:12;;;;;;;62.85;30.62;;;;;;;-1.12;78.01;99075.47;1770643;80;20998;-57
2022/03/25 01:14:39;;;;;;;63.98;28.90;;;;;;;-1.18;75.65;99078.36;1743169;82;21048;-57
2022/03/25 01:17:06;;;;;;;66.50;30.20;;;;;;;-1.25;74.05;99073.93;1743199;81;21634;-57
2022/03/25 01:19:34;;;;;;;71.22;33.42;;;;;;;-1.39;75.72;99070.20;1743019;82;21435;-57
2022/03/25 01:22:03;;;;;;;57.45;27.20;;;;;;;-1.43;79.60;99070.24;1743065;81;21010;-57
2022/03/25 01:24:30;;;;;;;61.23;28.07;;;;;;;-1.39;77.07;99067.54;1743200;82;20996;-57
2022/03/25 01:26:58;;;;;;;68.92;31.00;;;;;;;-1.37;77.99;99072.67;1743294;82;21283;-57
2022/03/25 01:29:25;;;;;;;71.15;29.20;;;;;;;-1.37;75.30;99075.33;1742993;82;21001;-57
2022/03/25 01:31:51;;;;;;;59.40;28.38;;;;;;;-1.40;74.53;99072.53;1743310;82;21475;-57
2022/03/25 01:34:18;;;;;;;58.65;27.75;;;;;;;-1.43;74.71;99074.23;1742729;82;20958;-57
2022/03/25 01:36:46;;;;;;;60.92;29.00;;;;;;;-1.51;80.40;99075.11;1743284;82;20977;-57
2022/03/25 01:39:13;;;;;;;59.85;27.40;;;;;;;-1.48;79.54;99073.41;1745207;81;20994;-57
2022/03/25 01:41:40;;;;;;;59.13;28.07;;;;;;;-1.50;79.59;99070.11;1743470;82;21018;-57
2022/03/25 01:44:09;;;;;;;58.75;26.57;;;;;;;-1.52;77.46;99072.13;1742708;82;21569;-57
2022/03/25 01:46:37;;;;;;;50.75;26.37;;;;;;;-1.52;77.44;99077.95;1743568;82;21021;-57
2022/03/25 01:49:05;;;;;;;62.10;29.20;;;;;;;-1.59;75.23;99077.00;1764113;80;21418;-56
2022/03/25 01:51:36;;;;;;;65.83;30.60;;;;;;;-1.67;78.11;99081.03;1773927;80;21423;-57
2022/03/25 01:54:12;;;;;;;56.77;28.05;;;;;;;-1.68;79.42;99083.38;1750937;80;21005;-57
2022/03/25 01:56:38;;;;;;;64.22;31.97;;;;;;;-1.68;76.48;99082.04;1742959;81;21451;-57
2022/03/25 01:59:05;;;;;;;57.95;27.00;;;;;;;-1.76;78.67;99081.58;1742693;81;21030;-57
2022/03/25 02:01:32;;;;;;;59.65;28.45;;;;;;;-1.76;76.02;99072.28;1743370;82;21030;-57
2022/03/25 02:03:59;;;;;;;58.38;25.75;;;;;;;-1.91;80.43;99075.35;1748427;80;21035;-57
2022/03/25 02:06:26;;;;;;;53.95;27.15;;;;;;;-1.86;78.72;99080.98;1743241;82;21048;-57
2022/03/25 02:08:53;;;;;;;59.70;27.75;;;;;;;-1.81;77.30;99080.77;1742978;82;21439;-57
2022/03/25 02:11:20;;;;;;;53.75;25.75;;;;;;;-1.78;81.72;99072.97;1742912;82;21010;-57
2022/03/25 02:13:47;;;;;;;53.78;26.02;;;;;;;-1.71;79.32;99077.41;1742814;82;21006;-57
2022/03/25 02:16:13;;;;;;;38.78;17.73;;;;;;;-1.65;82.01;99079.02;1743265;82;20994;-57
2022/03/25 02:18:40;;;;;;;47.65;21.55;;;;;;;-1.53;78.30;99078.45;1743100;80;21457;-57
2022/03/25 02:21:07;;;;;;;43.70;20.72;;;;;;;-1.44;79.43;99084.55;1743368;82;21539;-57
2022/03/25 02:23:34;;;;;;;45.58;22.58;;;;;;;-1.43;78.95;99077.72;1748285;80;21633;-57
2022/03/25 02:26:01;;;;;;;41.92;19.70;;;;;;;-1.38;81.67;99073.69;1743240;82;20967;-57
2022/03/25 02:28:28;;;;;;;48.65;20.17;;;;;;;-1.34;78.81;99082.98;1743012;80;21017;-57
2022/03/25 02:30:55;;;;;;;42.40;20.57;;;;;;;-1.37;78.21;99088.63;1743315;82;21018;-57
2022/03/25 02:33:22;;;;;;;57.50;25.97;;;;;;;-1.40;78.81;99085.83;1751343;80;21394;-57
2022/03/25 02:35:50;;;;;;;56.05;22.80;;;;;;;-1.42;81.09;99079.88;1773906;80;20969;-57
2022/03/25 02:38:21;;;;;;;54.33;26.00;;;;;;;-1.42;82.16;99076.70;1744606;80;21018;-57
2022/03/25 02:40:48;;;;;;;54.55;25.30;;;;;;;-1.44;81.11;99082.71;1742852;82;21033;-57
2022/03/25 02:43:16;;;;;;;57.08;25.57;;;;;;;-1.52;81.89;99082.77;1742944;81;21038;-57
2022/03/25 02:45:43;;;;;;;55.28;28.70;;;;;;;-1.56;80.13;99089.42;1742942;82;21459;-57
2022/03/25 02:48:11;;;;;;;50.65;24.30;;;;;;;-1.62;79.89;99086.16;1742896;81;20993;-57
2022/03/25 02:50:38;;;;;;;50.85;25.02;;;;;;;-1.74;82.44;99091.03;1743050;82;20958;-57
2022/03/25 02:53:06;;;;;;;47.88;22.93;;;;;;;-1.72;81.01;99089.02;1742807;81;21408;-56
2022/03/25 02:55:33;;;;;;;31.45;17.70;;;;;;;-1.71;78.56;99090.70;1743179;82;21077;-57
2022/03/25 02:58:00;;;;;;;46.85;22.65;;;;;;;-1.73;79.22;99090.02;1742930;81;21415;-57
2022/03/25 03:00:27;;;;;;;48.50;22.45;;;;;;;-1.77;82.54;99091.39;1742942;82;21006;-58
2022/03/25 03:02:54;;;;;;;47.70;24.82;;;;;;;-1.76;80.03;99090.88;1742911;81;21058;-56
2022/03/25 03:05:21;;;;;;;46.58;22.13;;;;;;;-1.79;81.72;99092.07;1743070;82;21017;-57
2022/03/25 03:07:49;;;;;;;58.95;27.45;;;;;;;-1.80;81.84;99086.41;1743192;82;21454;-57
2022/03/25 03:10:16;;;;;;;58.83;28.40;;;;;;;-1.82;83.62;99087.08;1743188;82;21538;-57
2022/03/25 03:12:43;;;;;;;47.75;24.10;;;;;;;-1.77;82.91;99094.05;1745759;80;20970;-57
2022/03/25 03:15:12;;;;;;;58.55;28.12;;;;;;;-1.77;80.49;99093.22;1743150;82;21050;-57
2022/03/25 03:17:39;;;;;;;;;;;;;;;-1.83;82.61;99088.59;1751712;80;21045;-57
2022/03/25 03:20:07;;;;;;;43.92;21.85;;;;;;;-1.85;82.22;99091.94;1743618;80;20189;-57
2022/03/25 03:22:34;;;;;;;35.55;18.92;;;;;;;-1.88;79.69;99091.79;1745987;80;22302;-56
2022/03/25 03:25:01;;;;;;;48.35;23.35;;;;;;;-1.97;78.77;99094.63;1743108;81;21029;-56
2022/03/25 03:27:28;;;;;;;49.00;24.10;;;;;;;-2.09;79.92;99099.51;1743285;81;20991;-56
2022/03/25 03:29:55;;;;;;;43.78;23.67;;;;;;;-2.15;81.43;99097.03;1743084;82;21045;-57
2022/03/25 03:32:23;;;;;;;56.45;27.75;;;;;;;-2.22;83.47;99097.89;1743068;82;21375;-56
2022/03/25 03:34:50;;;;;;;54.67;27.05;;;;;;;-2.23;84.60;99097.06;1770297;80;22107;-57
2022/03/25 03:37:17;;;;;;;51.50;22.93;;;;;;;-2.19;85.07;99101.05;1762565;80;21567;-57
2022/03/25 03:39:44;;;;;;;51.95;24.05;;;;;;;-2.15;81.54;99103.67;1748063;80;21001;-57
2022/03/25 03:42:11;;;;;;;50.23;24.90;;;;;;;-2.17;82.98;99106.18;1743079;82;20994;-56
2022/03/25 03:44:38;;;;;;;48.38;22.75;;;;;;;-2.20;84.30;99104.70;1749063;80;21001;-57
2022/03/25 03:47:06;;;;;;;55.12;24.12;;;;;;;-2.20;81.24;99100.72;1743260;81;21432;-57
2022/03/25 03:49:34;;;;;;;51.05;25.95;;;;;;;-2.31;82.64;99106.38;1743016;82;21471;-57
2022/03/25 03:52:02;;;;;;;45.63;22.45;;;;;;;-2.35;84.38;99101.10;1743192;81;21522;-57
2022/03/25 03:54:28;;;;;;;45.43;23.60;;;;;;;-2.45;85.20;99102.63;1743223;82;20955;-57
2022/03/25 03:56:55;;;;;;;60.00;24.15;;;;;;;-2.44;85.01;99108.26;1743069;82;21002;-57
2022/03/25 03:59:22;;;;;;;49.33;23.73;;;;;;;-2.42;83.21;99106.25;1742913;82;22129;-57
2022/03/25 04:01:49;;;;;;;54.15;25.62;;;;;;;-2.40;81.86;99112.22;1743150;82;20979;-56
2022/03/25 04:04:17;;;;;;;46.95;22.52;;;;;;;-2.42;83.61;99106.25;1742876;82;21077;-57
2022/03/25 04:06:44;;;;;;;56.03;26.40;;;;;;;-2.38;81.03;99106.27;1743563;82;21061;-57
2022/03/25 04:09:11;;;;;;;53.40;28.52;;;;;;;-2.42;83.99;99104.92;1742822;81;21562;-56
2022/03/25 04:11:38;;;;;;;55.50;24.45;;;;;;;-2.43;81.86;99105.93;1743077;82;22041;-56
2022/03/25 04:14:05;;;;;;;45.70;20.92;;;;;;;-2.47;83.89;99105.12;1742785;81;21005;-57
2022/03/25 04:16:32;;;;;;;49.10;25.55;;;;;;;-2.45;81.33;99108.44;1743421;82;21030;-57
2022/03/25 04:18:59;;;;;;;45.88;22.35;;;;;;;-2.56;83.14;99103.82;1742810;80;20994;-56
2022/03/25 04:21:26;;;;;;;46.20;22.73;;;;;;;-2.63;83.48;99100.18;1743339;82;20979;-56
2022/03/25 04:23:53;;;;;;;48.13;23.92;;;;;;;-2.64;84.86;99106.49;1742981;81;21401;-56
2022/03/25 04:26:20;;;;;;;49.65;22.25;;;;;;;-2.57;86.30;99104.79;1743090;82;20994;-57
2022/03/25 04:28:47;;;;;;;52.25;22.05;;;;;;;-2.51;84.47;99107.78;1750989;80;21001;-56
2022/03/25 04:31:14;;;;;;;47.85;21.85;;;;;;;-2.54;85.56;99098.84;1773818;80;21406;-56
2022/03/25 04:33:41;;;;;;;47.48;20.72;;;;;;;-2.50;82.90;99101.47;1751979;80;21057;-57
2022/03/25 04:36:08;;;;;;;44.85;24.00;;;;;;;-2.51;84.41;99103.80;1743485;82;21045;-61
2022/03/25 04:38:35;;;;;;;51.25;22.17;;;;;;;-2.52;85.00;99101.64;1745971;80;21009;-57
2022/03/25 04:41:02;;;;;;;40.40;18.90;;;;;;;-2.48;86.34;99099.47;1743138;82;21065;-57
2022/03/25 04:43:29;;;;;;;49.42;24.32;;;;;;;-2.41;83.57;99102.59;1742965;81;20994;-56
2022/03/25 04:45:56;;;;;;;47.50;23.90;;;;;;;-2.42;85.23;99102.77;1743145;82;21068;-56
2022/03/25 04:48:23;;;;;;;57.43;26.93;;;;;;;-2.38;85.96;99107.59;1742993;81;22011;-57
2022/03/25 04:50:50;;;;;;;47.27;22.13;;;;;;;-2.38;85.63;99109.41;1742969;82;21469;-56
2022/03/25 04:53:17;;;;;;;51.35;21.42;;;;;;;-2.37;84.87;99105.76;1743026;82;21006;-57
2022/03/25 04:55:44;;;;;;;56.35;26.48;;;;;;;-2.42;83.63;99110.23;1743111;82;21002;-57
2022/03/25 04:58:11;;;;;;;50.73;21.77;;;;;;;-2.48;84.18;99110.91;1743003;81;21443;-57
2022/03/25 05:00:39;;;;;;;42.20;21.15;;;;;;;-2.46;81.94;99112.92;1743673;82;21477;-57
2022/03/25 05:03:05;;;;;;;50.33;22.45;;;;;;;-2.53;84.32;99116.42;1747855;80;21048;-57
2022/03/25 05:05:32;;;;;;;52.55;26.00;;;;;;;-2.48;84.10;99119.38;1774110;80;21017;-57
2022/03/25 05:07:59;;;;;;;45.98;25.12;;;;;;;-2.46;84.75;99115.57;1772643;80;21411;-57
2022/03/25 05:10:27;;;;;;;48.02;24.35;;;;;;;-2.37;86.37;99125.17;1773628;80;21472;-56
2022/03/25 05:12:54;;;;;;;48.60;25.37;;;;;;;-2.28;85.07;99119.34;1763192;80;21349;-56
2022/03/25 05:15:21;;;;;;;51.65;24.00;;;;;;;-2.22;82.92;99125.30;1743133;81;20978;-56
2022/03/25 05:17:51;;;;;;;48.02;26.10;;;;;;;-2.20;82.14;99123.80;1743096;81;21041;-56
2022/03/25 05:20:21;;;;;;;52.50;27.02;;;;;;;-2.17;81.77;99127.42;1743013;82;21052;-57
2022/03/25 05:22:48;;;;;;;69.45;31.33;;;;;;;-2.18;82.37;99130.58;1743017;81;21033;-57
2022/03/25 05:25:17;;;;;;;60.63;33.20;;;;;;;-2.15;85.23;99129.41;1743100;82;21989;-57
2022/03/25 05:27:53;;;;;;;58.08;28.17;;;;;;;-2.05;85.25;99130.02;1743124;81;26853;-57
2022/03/25 05:30:25;;;;;;;58.78;27.73;;;;;;;-1.93;85.96;99135.30;1770957;80;21163;-57
2022/03/25 05:32:52;;;;;;;72.15;33.85;;;;;;;-1.76;85.95;99134.73;1762126;80;21065;-56
2022/03/25 05:35:19;;;;;;;71.07;32.88;;;;;;;-1.52;85.35;99133.78;1743291;82;21096;-57
2022/03/25 05:37:46;;;;;;;67.70;32.93;;;;;;;-1.37;84.56;99139.16;1743265;82;21347;-56
2022/03/25 05:40:13;;;;;;;80.60;34.15;;;;;;;-1.24;83.78;99138.08;1743024;82;21478;-56
2022/03/25 05:42:40;;;;;;;74.00;36.40;;;;;;;-1.04;83.08;99139.75;1743029;81;21010;-57
2022/03/25 05:45:08;;;;;;;68.97;34.67;;;;;;;-1.00;82.99;99136.58;1743154;82;21006;-57
2022/03/25 05:47:36;;;;;;;58.95;33.02;;;;;;;-0.90;82.17;99146.47;1743258;81;21572;-57
2022/03/25 05:50:09;;;;;;;72.62;37.93;;;;;;;-0.98;82.27;99147.86;1750857;80;21747;-57
2022/03/25 05:52:36;;;;;;;82.00;40.28;;;;;;;-0.93;81.90;99153.48;1765545;80;21498;-57
2022/03/25 05:55:04;;;;;;;88.12;36.23;;;;;;;-0.95;81.92;99147.49;1743109;82;21013;-56
2022/03/25 05:57:32;;;;;;;71.40;34.95;;;;;;;-0.90;81.58;99157.62;1743962;80;21049;-57
2022/03/25 05:59:59;;;;;;;73.05;33.38;;;;;;;-0.85;81.69;99153.92;1764396;80;21011;-57
2022/03/25 06:02:26;;;;;;;72.82;35.03;;;;;;;-0.77;80.99;99151.67;1748459;80;21309;-57
2022/03/25 06:04:55;;;;;;;63.98;32.75;;;;;;;-0.71;80.22;99158.95;1742902;82;21439;-56
2022/03/25 06:07:24;;;;;;;65.97;33.05;;;;;;;-0.66;82.59;99155.26;1743186;80;21550;-56
2022/03/25 06:09:51;;;;;;;65.03;30.48;;;;;;;-0.43;80.43;99157.34;1743099;82;21062;-56
2022/03/25 06:12:18;;;;;;;69.47;34.90;;;;;;;-0.18;82.01;99153.92;1742832;81;22105;-57
2022/03/25 06:14:45;;;;;;;52.15;26.42;;;;;;;0.22;81.20;99152.64;1762528;80;21418;-56
2022/03/25 06:17:12;;;;;;;66.42;30.37;;;;;;;0.64;80.19;99159.09;1759919;80;20986;-57
2022/03/25 06:19:39;;;;;;;59.30;28.95;;;;;;;0.98;80.08;99152.27;1745302;80;20969;-57
2022/03/25 06:22:06;;;;;;;51.40;25.45;;;;;;;1.15;79.87;99152.83;1742803;80;21048;-57
2022/03/25 06:24:33;;;;;;;51.00;26.00;;;;;;;1.20;79.25;99146.39;1754665;80;21407;-57
2022/03/25 06:27:00;;;;;;;50.33;22.00;;;;;;;1.21;78.90;99150.73;1747551;80;21588;-57
2022/03/25 06:29:27;;;;;;;50.95;24.40;;;;;;;1.29;78.37;99153.28;1756438;80;21025;-57
2022/03/25 06:31:53;;;;;;;63.87;28.77;;;;;;;1.33;77.87;99158.53;1754171;80;20992;-57
2022/03/25 06:34:23;;;;;;;60.38;25.88;;;;;;;1.38;78.16;99157.45;1752317;80;20980;-56
2022/03/25 06:36:49;;;;;;;53.55;25.95;;;;;;;1.55;77.53;99158.01;1747029;80;21008;-57
2022/03/25 06:39:16;;;;;;;73.97;40.23;;;;;;;1.69;77.60;99160.56;1751519;80;21554;-57
2022/03/25 06:41:43;;;;;;;57.20;31.25;;;;;;;1.82;76.48;99160.35;1742991;81;21001;-57
2022/03/25 06:44:10;;;;;;;61.58;31.57;;;;;;;1.90;76.57;99155.67;1751921;80;21453;-57
2022/03/25 06:46:37;;;;;;;57.20;30.17;;;;;;;2.23;76.12;99155.05;1754471;80;20994;-57
2022/03/25 06:49:05;;;;;;;45.98;24.37;;;;;;;2.76;74.41;99153.91;1753865;80;20985;-57
2022/03/25 06:51:32;;;;;;;36.05;20.75;;;;;;;3.35;72.72;99153.17;1749692;80;21855;-57
2022/03/25 06:54:00;;;;;;;50.67;25.35;;;;;;;3.99;73.79;99155.69;1761900;80;21047;-57
2022/03/25 06:56:28;;;;;;;51.90;22.87;;;;;;;4.46;72.38;99154.53;1769140;80;21044;-57
2022/03/25 06:58:56;;;;;;;37.75;20.62;;;;;;;4.74;72.48;99157.70;1764068;80;22020;-57
2022/03/25 07:01:25;;;;;;;34.95;20.12;;;;;;;5.00;66.89;99158.07;1764865;80;21498;-57
2022/03/25 07:03:52;;;;;;;;;;;;;;;5.23;71.44;99153.48;1754058;80;21026;-57
2022/03/25 07:06:23;;;;;;;34.25;19.60;;;;;;;5.17;66.92;99148.16;1748772;80;20155;-57
2022/03/25 07:08:55;;;;;;;41.33;20.10;;;;;;;5.55;64.11;99151.56;1759952;80;21049;-57
2022/03/25 07:11:22;;;;;;;36.10;21.30;;;;;;;6.46;68.60;99156.80;1745177;80;21088;-58
2022/03/25 07:13:50;;;;;;;40.63;21.27;;;;;;;7.09;66.30;99148.29;1757273;80;23065;-58
2022/03/25 07:16:19;;;;;;;39.53;23.33;;;;;;;7.78;64.50;99152.20;1693669;82;21104;-58
2022/03/25 07:18:46;;;;;;;;;;;;;;;8.48;61.02;99154.05;1758517;80;23098;-58
2022/03/25 07:21:13;;;;;;;38.50;24.65;;;;;;;9.12;57.99;99153.39;1746126;80;20130;-58
2022/03/25 07:23:40;;;;;;;39.40;23.95;;;;;;;9.67;58.04;99146.50;1749067;80;21354;-57
2022/03/25 07:26:07;;;;;;;37.80;22.20;;;;;;;10.10;53.14;99152.56;1760050;80;21482;-58
2022/03/25 07:28:34;;;;;;;35.17;22.15;;;;;;;10.86;58.29;99149.52;1752192;80;21051;-58
2022/03/25 07:31:02;;;;;;;33.88;21.33;;;;;;;11.21;52.61;99149.08;1751488;80;21053;-58
2022/03/25 07:33:28;;;;;;;48.63;22.40;;;;;;;11.86;51.64;99141.23;1752446;80;20964;-58
2022/03/25 07:35:56;;;;;;;40.00;22.73;;;;;;;12.47;52.42;99143.48;1756180;80;20982;-58
2022/03/25 07:38:23;;;;;;;39.15;21.80;;;;;;;13.05;51.71;99146.16;1762569;80;21667;-58
2022/03/25 07:40:49;;;;;;;36.35;21.68;;;;;;;13.51;48.47;99139.73;1760896;80;21001;-58
2022/03/25 07:43:16;;;;;;;33.23;21.17;;;;;;;13.75;42.75;99141.89;1746927;80;20965;-58
2022/03/25 07:45:44;;;;;;;41.35;22.70;;;;;;;14.20;42.72;99140.23;1745425;80;21777;-58
2022/03/25 07:48:11;;;;;;;33.42;20.48;;;;;;;14.38;39.93;99143.17;1750080;81;21143;-57
2022/03/25 07:50:38;;;;;;;34.45;22.05;;;;;;;14.87;39.96;99141.11;1742153;80;21368;-59
2022/03/25 07:53:05;;;;;;;28.85;19.75;;;;;;;15.49;42.41;99131.98;1754256;80;21073;-58
2022/03/25 07:55:33;;;;;;;28.10;18.23;;;;;;;16.24;43.03;99131.06;1745688;82;37381;-58
2022/03/25 07:58:00;;;;;;;28.60;19.40;;;;;;;16.46;39.82;99135.19;1746994;80;21521;-58
2022/03/25 08:00:27;;;;;;;33.30;19.60;;;;;;;17.03;39.63;99127.94;1757907;80;21028;-58
2022/03/25 08:02:54;;;;;;;28.77;18.82;;;;;;;17.39;37.37;99130.97;1741013;82;21214;-58
2022/03/25 08:05:21;;;;;;;35.00;18.40;;;;;;;17.49;38.59;99136.28;1744266;82;21045;-58
2022/03/25 08:07:54;;;;;;;36.33;30.95;;;;;;;17.90;37.18;99130.98;1756203;80;21095;-58
2022/03/25 08:10:24;;;;;;;26.45;19.90;;;;;;;17.73;36.98;99132.91;1756280;80;21050;-58
2022/03/25 08:12:51;;;;;;;26.42;19.05;;;;;;;18.13;35.23;99122.91;1759506;80;21052;-58
2022/03/25 08:15:18;;;;;;;29.90;19.48;;;;;;;18.80;36.42;99134.22;1760444;80;21045;-58
2022/03/25 08:17:55;;;;;;;31.17;20.23;;;;;;;19.43;34.61;99125.14;1741151;81;21500;-58
2022/03/25 08:20:26;;;;;;;24.32;18.60;;;;;;;20.11;33.85;99122.63;1758504;81;22391;-58
2022/03/25 08:22:54;;;;;;;25.88;15.43;;;;;;;20.92;32.80;99118.73;1742460;81;20978;-58
2022/03/25 08:28:06;;;;;;;26.42;18.60;;;;;;;21.48;29.23;99120.60;1741923;82;21028;-58
2022/03/25 08:30:33;;;;;;;31.00;22.37;;;;;;;22.44;28.78;99115.13;1754109;80;21617;-59
2022/03/25 08:33:04;;;;;;;30.50;17.77;;;;;;;22.62;28.66;99122.76;1752538;80;21038;-59
2022/03/25 08:35:31;;;;;;;22.00;15.83;;;;;;;22.34;23.27;99117.45;1741475;82;21013;-58
2022/03/25 08:37:58;;;;;;;24.47;16.65;;;;;;;21.90;25.13;99116.17;1746779;80;22985;-59
2022/03/25 08:40:27;;;;;;;21.87;15.10;;;;;;;22.55;25.57;99115.56;1742322;80;21081;-59
2022/03/25 08:42:54;;;;;;;23.10;13.38;;;;;;;22.21;23.81;99113.17;1746350;80;21379;-59
2022/03/25 08:45:21;;;;;;;17.82;13.03;;;;;;;22.10;21.79;99122.96;1746217;80;21083;-59
2022/03/25 08:47:48;;;;;;;24.67;15.60;;;;;;;21.99;23.97;99119.48;1747468;80;21024;-59
2022/03/25 08:50:16;;;;;;;20.32;15.28;;;;;;;22.51;22.30;99120.14;1741584;81;21009;-59
2022/03/25 08:52:44;;;;;;;21.85;14.95;;;;;;;22.89;23.29;99123.45;1742270;81;21068;-59
2022/03/25 08:55:12;;;;;;;19.98;14.80;;;;;;;22.54;20.69;99118.08;1741755;82;21012;-59
2022/03/25 08:57:39;;;;;;;26.43;15.10;;;;;;;22.80;20.81;99113.23;1746714;80;21034;-59
2022/03/25 09:00:12;;;;;;;21.20;14.33;;;;;;;23.54;22.50;99121.44;1745983;80;20997;-58
2022/03/25 09:02:43;;;;;;;22.50;13.72;;;;;;;21.65;23.95;99113.70;1744718;80;21088;-58
2022/03/25 09:05:11;;;;;;;24.12;13.72;;;;;;;20.22;24.03;99112.16;1747004;80;21077;-58
2022/03/25 09:07:38;;;;;;;23.00;14.18;;;;;;;18.62;25.65;99116.72;1757667;80;21407;-58
2022/03/25 09:10:08;;;;;;;32.73;15.78;;;;;;;16.37;27.65;99119.97;1750802;80;21124;-58
2022/03/25 09:12:35;;;;;;;29.12;14.87;;;;;;;16.18;28.09;99110.89;1754830;80;21636;-58
2022/03/25 09:15:04;;;;;;;23.22;14.93;;;;;;;15.83;28.83;99112.06;1752140;80;21128;-58
2022/03/25 09:17:32;;;;;;;33.48;15.45;;;;;;;15.58;29.38;99111.70;1744058;80;21545;-58
2022/03/25 09:19:58;;;;;;;24.45;13.88;;;;;;;15.13;29.70;99121.86;1742816;80;21072;-57
2022/03/25 09:22:25;;;;;;;25.32;13.78;;;;;;;14.85;30.12;99111.91;1743689;80;21029;-58
2022/03/25 09:24:52;;;;;;;30.20;13.62;;;;;;;14.69;30.17;99122.62;1747382;80;21028;-58
2022/03/25 09:27:19;;;;;;;26.80;14.03;;;;;;;14.16;31.49;99117.33;1757489;80;21069;-58
2022/03/25 09:29:46;;;;;;;21.70;12.78;;;;;;;14.04;31.18;99110.82;1742488;80;21035;-58
2022/03/25 09:32:13;;;;;;;25.68;13.10;;;;;;;13.97;31.59;99114.38;1749790;80;21440;-57
2022/03/25 09:37:25;;;;;;;25.92;14.30;;;;;;;13.39;32.59;99108.41;1713084;82;21025;-58
2022/03/25 09:39:52;;;;;;;27.85;13.08;;;;;;;13.03;32.71;99106.98;1752589;80;21009;-57
2022/03/25 09:42:19;;;;;;;28.70;12.93;;;;;;;13.04;32.63;99105.89;1744955;80;21456;-57
2022/03/25 09:44:48;;;;;;;27.02;13.83;;;;;;;13.08;33.41;99108.36;1760355;80;21820;-58
2022/03/25 09:47:17;;;;;;;25.25;13.93;;;;;;;13.19;33.03;99115.98;1753356;80;21006;-57
2022/03/25 09:49:44;;;;;;;24.92;12.33;;;;;;;13.20;33.56;99110.30;1741525;80;21491;-58
2022/03/25 09:52:11;;;;;;;26.82;12.80;;;;;;;13.04;32.92;99111.33;1755692;80;21080;-58
2022/03/25 09:54:38;;;;;;;26.15;13.45;;;;;;;13.06;33.08;99113.23;1761371;80;22287;-57
2022/03/25 09:57:05;;;;;;;22.30;12.93;;;;;;;12.92;33.72;99110.22;1751612;80;21049;-58
2022/03/25 09:59:32;;;;;;;26.52;15.00;;;;;;;12.97;34.01;99107.50;1751548;80;21516;-57
2022/03/25 10:02:01;;;;;;;22.60;12.88;;;;;;;12.93;33.80;99108.31;1753123;80;21099;-57
2022/03/25 10:04:45;;;;;;;21.17;12.93;;;;;;;12.96;34.02;99104.50;1754919;80;20966;-57
2022/03/25 10:07:27;;;;;;;26.50;14.25;;;;;;;12.99;35.07;99103.17;1749884;80;21073;-57
2022/03/25 10:10:20;;;;;;;19.75;11.93;;;;;;;12.95;35.45;99100.70;1756439;80;21153;-57
2022/03/25 10:12:53;;;;;;;20.25;11.73;;;;;;;13.05;36.01;99099.90;1748055;80;21076;-58
2022/03/25 10:15:25;;;;;;;18.65;10.80;;;;;;;13.17;35.06;99099.12;1736861;80;20973;-58
2022/03/25 10:18:03;;;;;;;19.37;10.43;;;;;;;13.15;35.75;99099.36;1749316;80;21052;-57
2022/03/25 10:20:41;;;;;;;21.10;10.35;;;;;;;13.13;35.68;99100.19;1743148;80;21026;-58
2022/03/25 10:23:17;;;;;;;24.57;11.53;;;;;;;13.15;36.09;99100.72;1711320;82;21000;-57
2022/03/25 10:25:59;;;;;;;20.15;11.25;;;;;;;13.18;35.70;99102.11;1753500;80;20948;-57
2022/03/25 10:28:31;;;;;;;20.37;10.68;;;;;;;13.21;35.74;99094.78;1751684;80;21044;-57
2022/03/25 10:31:05;;;;;;;26.23;10.85;;;;;;;13.22;35.96;99091.79;1750387;80;20989;-58
2022/03/25 10:33:57;;;;;;;18.60;10.78;;;;;;;13.33;36.30;99096.72;1744372;79;20985;-57
2022/03/25 10:36:25;;;;;;;15.58;9.33;;;;;;;13.38;36.02;99098.61;1743467;80;21051;-57
2022/03/25 10:39:01;;;;;;;24.12;12.07;;;;;;;13.24;36.55;99098.31;1745512;80;21763;-58
2022/03/25 10:41:28;;;;;;;18.65;11.10;;;;;;;13.26;36.18;99091.53;1745750;80;20957;-57
2022/03/25 10:43:59;;;;;;;16.93;7.40;;;;;;;13.16;36.34;99087.42;1746353;80;21486;-58
2022/03/25 10:46:49;;;;;;;18.82;8.95;;;;;;;13.23;36.56;99082.53;1755263;80;21135;-58
2022/03/25 10:49:17;;;;;;;25.45;12.82;;;;;;;13.31;36.33;99077.64;1748797;80;20993;-57
2022/03/25 10:51:53;;;;;;;19.65;12.93;;;;;;;13.41;36.18;99074.91;1742011;80;21651;-57
2022/03/25 10:54:25;;;;;;;21.70;12.65;;;;;;;13.46;35.92;99073.02;1751955;80;21103;-57
2022/03/25 10:56:55;;;;;;;18.85;10.93;;;;;;;13.55;35.82;99074.10;1761098;80;21584;-57
2022/03/25 10:59:28;;;;;;;21.70;11.05;;;;;;;13.62;35.51;99078.46;1738476;80;21100;-58
2022/03/25 11:01:57;;;;;;;27.70;11.25;;;;;;;13.53;35.52;99073.56;1758817;80;21506;-58
2022/03/25 11:04:24;;;;;;;;;;;;;;;13.49;35.79;99078.45;1743561;81;21006;-58
2022/03/25 11:06:52;;;;;;;24.20;10.80;;;;;;;13.49;35.57;99069.73;1741331;82;20190;-57
2022/03/25 11:09:20;;;;;;;22.40;10.45;;;;;;;13.51;35.97;99074.94;1741302;80;21016;-58
2022/03/25 11:11:48;;;;;;;15.72;10.08;;;;;;;13.63;35.86;99070.56;1741266;80;21020;-58
2022/03/25 11:14:16;;;;;;;15.93;9.43;;;;;;;13.73;35.60;99071.91;1751082;80;21080;-58
2022/03/25 11:16:45;;;;;;;18.42;10.05;;;;;;;13.69;35.59;99074.38;1734690;82;21119;-58
2022/03/25 11:19:13;;;;;;;18.75;10.32;;;;;;;13.74;35.35;99068.90;1748328;80;21171;-58
2022/03/25 11:21:45;;;;;;;21.33;10.78;;;;;;;13.78;35.65;99072.72;1741054;82;21032;-58
2022/03/25 11:24:35;;;;;;;21.17;10.68;;;;;;;13.59;35.56;99068.09;1740824;81;21088;-58
2022/03/25 11:27:07;;;;;;;16.02;9.30;;;;;;;13.39;35.80;99070.30;1744362;80;21591;-58
2022/03/25 11:29:34;;;;;;;22.98;11.88;;;;;;;13.58;35.68;99065.92;1763935;80;21057;-58